SHT2V EGLL-EGCC
Flight info
| Callsign | SHT2V |
|---|---|
| Flight time | N/A |
| Altitude | 16000 |
| Route | ULTIB1J ULTIB T420 ELVOS ELVOS1M |
| Aircraft | A319/M-SDE2E3FGHIJ1RWXY/SB1 |
Departure
| Time | 2026-05-06 23:22 |
|---|---|
| Airport | London Heathrow Airport (EGLL) |
Arrival
| Time | N/A |
|---|---|
| Airport | Manchester Airport (EGCC) |
| Time | Latitude | Longitude | Altitude | Speed | Heading |
|---|---|---|---|---|---|
| 2026-05-06 22:33 | 51.47233 | -0.48588 | 86 ft | 0 kts | 270° |
| 2026-05-06 23:11 | 51.47233 | -0.48567 | 89 ft | 4 kts | 270° |
| 2026-05-06 23:12 | 51.47233 | -0.48524 | 88 ft | 3 kts | 270° |
| 2026-05-06 23:12 | 51.47235 | -0.48492 | 86 ft | 4 kts | 236° |
| 2026-05-06 23:12 | 51.47253 | -0.48473 | 86 ft | 3 kts | 180° |
| 2026-05-06 23:12 | 51.47270 | -0.48473 | 86 ft | 0 kts | 180° |
| 2026-05-06 23:16 | 51.47259 | -0.48473 | 89 ft | 3 kts | 179° |
| 2026-05-06 23:16 | 51.47222 | -0.48473 | 87 ft | 8 kts | 179° |
| 2026-05-06 23:16 | 51.47157 | -0.48472 | 89 ft | 11 kts | 179° |
| 2026-05-06 23:16 | 51.47074 | -0.48471 | 86 ft | 13 kts | 179° |
| 2026-05-06 23:17 | 51.46973 | -0.48470 | 89 ft | 13 kts | 179° |
| 2026-05-06 23:17 | 51.46905 | -0.48469 | 90 ft | 11 kts | 179° |
| 2026-05-06 23:17 | 51.46821 | -0.48469 | 86 ft | 11 kts | 179° |
| 2026-05-06 23:17 | 51.46768 | -0.48468 | 89 ft | 9 kts | 180° |
| 2026-05-06 23:18 | 51.46700 | -0.48468 | 89 ft | 11 kts | 180° |
| 2026-05-06 23:18 | 51.46650 | -0.48533 | 90 ft | 12 kts | 274° |
| 2026-05-06 23:18 | 51.46652 | -0.48606 | 86 ft | 3 kts | 268° |
| 2026-05-06 23:18 | 51.46651 | -0.48625 | 86 ft | 0 kts | 266° |
| 2026-05-06 23:20 | 51.46651 | -0.48626 | 86 ft | 1 kts | 266° |
| 2026-05-06 23:20 | 51.46651 | -0.48650 | 90 ft | 4 kts | 270° |
| 2026-05-06 23:20 | 51.46649 | -0.48724 | 89 ft | 8 kts | 252° |
| 2026-05-06 23:20 | 51.46592 | -0.48772 | 86 ft | 11 kts | 198° |
| 2026-05-06 23:21 | 51.46510 | -0.48779 | 89 ft | 13 kts | 155° |
| 2026-05-06 23:21 | 51.46479 | -0.48637 | 89 ft | 16 kts | 89° |
| 2026-05-06 23:21 | 51.46480 | -0.48317 | 88 ft | 53 kts | 89° |
| 2026-05-06 23:21 | 51.46484 | -0.47779 | 91 ft | 92 kts | 89° |
| 2026-05-06 23:22 | 51.46491 | -0.45870 | 95 ft | 161 kts | 89° |
| 2026-05-06 23:22 | 51.46504 | -0.44112 | 731 ft | 156 kts | 87° |
| 2026-05-06 23:22 | 51.46529 | -0.42358 | 1399 ft | 157 kts | 86° |
| 2026-05-06 23:22 | 51.46797 | -0.40593 | 1819 ft | 172 kts | 63° |
| 2026-05-06 23:23 | 51.47534 | -0.38965 | 2237 ft | 190 kts | 49° |
| 2026-05-06 23:23 | 51.48423 | -0.37279 | 2628 ft | 213 kts | 50° |
| 2026-05-06 23:23 | 51.49428 | -0.35355 | 3164 ft | 236 kts | 50° |
| 2026-05-06 23:23 | 51.50525 | -0.33255 | 3831 ft | 254 kts | 50° |
| 2026-05-06 23:24 | 51.51673 | -0.31069 | 4823 ft | 258 kts | 49° |
| 2026-05-06 23:24 | 51.52641 | -0.28615 | 5635 ft | 267 kts | 66° |
| 2026-05-06 23:24 | 51.53081 | -0.26720 | 5873 ft | 267 kts | 67° |
| 2026-05-06 23:24 | 51.54069 | -0.24242 | 5966 ft | 268 kts | 43° |
| 2026-05-06 23:25 | 51.55650 | -0.22744 | 6014 ft | 266 kts | 17° |
| 2026-05-06 23:25 | 51.57479 | -0.22444 | 6005 ft | 266 kts | 353° |
| 2026-05-06 23:25 | 51.59294 | -0.23054 | 5986 ft | 266 kts | 348° |
| 2026-05-06 23:25 | 51.61101 | -0.23674 | 5982 ft | 266 kts | 345° |
| 2026-05-06 23:26 | 51.62793 | -0.24869 | 5974 ft | 266 kts | 328° |
| 2026-05-06 23:26 | 51.64325 | -0.26544 | 6073 ft | 266 kts | 328° |
| 2026-05-06 23:26 | 51.65913 | -0.28096 | 6151 ft | 267 kts | 330° |
| 2026-05-06 23:26 | 51.67536 | -0.29572 | 6495 ft | 273 kts | 331° |
| 2026-05-06 23:27 | 51.69195 | -0.31084 | 7594 ft | 269 kts | 331° |
| 2026-05-06 23:27 | 51.70810 | -0.32575 | 8508 ft | 273 kts | 330° |
| 2026-05-06 23:27 | 51.72469 | -0.34134 | 9382 ft | 277 kts | 329° |
| 2026-05-06 23:27 | 51.74145 | -0.35733 | 10236 ft | 282 kts | 329° |
| 2026-05-06 23:28 | 51.75900 | -0.37421 | 10615 ft | 305 kts | 329° |
| 2026-05-06 23:28 | 51.77786 | -0.39239 | 10972 ft | 324 kts | 329° |
| 2026-05-06 23:28 | 51.79751 | -0.41135 | 11649 ft | 331 kts | 328° |
| 2026-05-06 23:28 | 51.81742 | -0.43063 | 12396 ft | 335 kts | 328° |
| 2026-05-06 23:29 | 51.83754 | -0.45023 | 13131 ft | 339 kts | 328° |
| 2026-05-06 23:29 | 51.85759 | -0.46981 | 13840 ft | 343 kts | 328° |
| 2026-05-06 23:29 | 51.87809 | -0.48979 | 14549 ft | 346 kts | 328° |
| 2026-05-06 23:29 | 51.89880 | -0.50997 | 15231 ft | 349 kts | 328° |
| 2026-05-06 23:30 | 51.91982 | -0.53042 | 15817 ft | 354 kts | 328° |
| 2026-05-06 23:30 | 51.94090 | -0.55097 | 16007 ft | 354 kts | 328° |
| 2026-05-06 23:30 | 51.96225 | -0.57183 | 16052 ft | 361 kts | 328° |
| 2026-05-06 23:30 | 51.98385 | -0.59291 | 16053 ft | 363 kts | 328° |
| 2026-05-06 23:31 | 52.00551 | -0.61406 | 16053 ft | 364 kts | 328° |
| 2026-05-06 23:31 | 52.02723 | -0.63526 | 16053 ft | 363 kts | 328° |
| 2026-05-06 23:31 | 52.04894 | -0.65650 | 16053 ft | 363 kts | 328° |
| 2026-05-06 23:31 | 52.07025 | -0.67742 | 16054 ft | 363 kts | 328° |
| 2026-05-06 23:32 | 52.09187 | -0.69871 | 16057 ft | 363 kts | 327° |
| 2026-05-06 23:32 | 52.11356 | -0.72008 | 16062 ft | 363 kts | 327° |
| 2026-05-06 23:32 | 52.13515 | -0.74135 | 16063 ft | 363 kts | 327° |
| 2026-05-06 23:32 | 52.15674 | -0.76265 | 16064 ft | 363 kts | 327° |
| 2026-05-06 23:33 | 52.17830 | -0.78394 | 16064 ft | 363 kts | 327° |
| 2026-05-06 23:33 | 52.19995 | -0.80539 | 16066 ft | 363 kts | 327° |
| 2026-05-06 23:33 | 52.22152 | -0.82678 | 16066 ft | 363 kts | 327° |
| 2026-05-06 23:33 | 52.24310 | -0.84818 | 16068 ft | 363 kts | 327° |
| 2026-05-06 23:34 | 52.26466 | -0.86956 | 16068 ft | 363 kts | 327° |
| 2026-05-06 23:34 | 52.28604 | -0.89076 | 16066 ft | 364 kts | 327° |
| 2026-05-06 23:34 | 52.30765 | -0.91223 | 16066 ft | 363 kts | 327° |
| 2026-05-06 23:34 | 52.32924 | -0.93372 | 16069 ft | 363 kts | 327° |
| 2026-05-06 23:35 | 52.35084 | -0.95529 | 16070 ft | 363 kts | 327° |
| 2026-05-06 23:35 | 52.37244 | -0.97687 | 16071 ft | 363 kts | 327° |
| 2026-05-06 23:35 | 52.39400 | -0.99842 | 16073 ft | 363 kts | 327° |
| 2026-05-06 23:35 | 52.41558 | -1.01997 | 16073 ft | 363 kts | 327° |
| 2026-05-06 23:36 | 52.43719 | -1.04153 | 16073 ft | 363 kts | 327° |
| 2026-05-06 23:36 | 52.45873 | -1.06309 | 16072 ft | 363 kts | 327° |
| 2026-05-06 23:36 | 52.48028 | -1.08472 | 16073 ft | 363 kts | 327° |
| 2026-05-06 23:36 | 52.50152 | -1.10609 | 16073 ft | 363 kts | 327° |
| 2026-05-06 23:37 | 52.52330 | -1.12800 | 16074 ft | 362 kts | 327° |
| 2026-05-06 23:37 | 52.54481 | -1.14970 | 16074 ft | 362 kts | 327° |
| 2026-05-06 23:37 | 52.56602 | -1.17105 | 16074 ft | 362 kts | 327° |
| 2026-05-06 23:37 | 52.58752 | -1.19267 | 16076 ft | 362 kts | 327° |
| 2026-05-06 23:38 | 52.60906 | -1.21440 | 16077 ft | 363 kts | 327° |
| 2026-05-06 23:38 | 52.63055 | -1.23618 | 16079 ft | 362 kts | 327° |
| 2026-05-06 23:38 | 52.65204 | -1.25803 | 16083 ft | 362 kts | 327° |
| 2026-05-06 23:38 | 52.67350 | -1.27983 | 16082 ft | 362 kts | 327° |
| 2026-05-06 23:39 | 52.69497 | -1.30163 | 16084 ft | 362 kts | 327° |
| 2026-05-06 23:39 | 52.71647 | -1.32342 | 16086 ft | 363 kts | 327° |
| 2026-05-06 23:39 | 52.73798 | -1.34520 | 16088 ft | 363 kts | 327° |
| 2026-05-06 23:39 | 52.75922 | -1.36679 | 16096 ft | 363 kts | 327° |
| 2026-05-06 23:40 | 52.78072 | -1.38876 | 16097 ft | 363 kts | 327° |
| 2026-05-06 23:40 | 52.80211 | -1.41067 | 16019 ft | 359 kts | 327° |
| 2026-05-06 23:40 | 52.82300 | -1.43205 | 15766 ft | 347 kts | 327° |
| 2026-05-06 23:40 | 52.84335 | -1.45284 | 15513 ft | 341 kts | 327° |
| 2026-05-06 23:41 | 52.86341 | -1.47339 | 15265 ft | 338 kts | 327° |
| 2026-05-06 23:41 | 52.88332 | -1.49386 | 15014 ft | 336 kts | 327° |
| 2026-05-06 23:41 | 52.90316 | -1.51428 | 14761 ft | 335 kts | 327° |
| 2026-05-06 23:41 | 52.92294 | -1.53461 | 14514 ft | 334 kts | 327° |
| 2026-05-06 23:42 | 52.94269 | -1.55491 | 14272 ft | 333 kts | 327° |
| 2026-05-06 23:42 | 52.96233 | -1.57515 | 14013 ft | 332 kts | 327° |
| 2026-05-06 23:42 | 52.98189 | -1.59534 | 13762 ft | 331 kts | 327° |
| 2026-05-06 23:42 | 53.00141 | -1.61555 | 13512 ft | 329 kts | 327° |
| 2026-05-06 23:43 | 53.02084 | -1.63568 | 13261 ft | 328 kts | 327° |
| 2026-05-06 23:43 | 53.04005 | -1.65559 | 12922 ft | 322 kts | 326° |
| 2026-05-06 23:43 | 53.05738 | -1.67790 | 12494 ft | 318 kts | 315° |
| 2026-05-06 23:43 | 53.07179 | -1.70481 | 12346 ft | 305 kts | 309° |
| 2026-05-06 23:44 | 53.08532 | -1.73118 | 12198 ft | 294 kts | 310° |
| 2026-05-06 23:44 | 53.09857 | -1.75675 | 11936 ft | 289 kts | 310° |
| 2026-05-06 23:44 | 53.11164 | -1.78192 | 11685 ft | 286 kts | 310° |
| 2026-05-06 23:44 | 53.12460 | -1.80691 | 11376 ft | 286 kts | 310° |
| 2026-05-06 23:45 | 53.13761 | -1.83210 | 10901 ft | 288 kts | 310° |
| 2026-05-06 23:45 | 53.15065 | -1.85747 | 10514 ft | 287 kts | 310° |
| 2026-05-06 23:45 | 53.16370 | -1.88290 | 10154 ft | 286 kts | 310° |
| 2026-05-06 23:45 | 53.17658 | -1.90799 | 9817 ft | 284 kts | 310° |
| 2026-05-06 23:46 | 53.18941 | -1.93300 | 9446 ft | 283 kts | 310° |
| 2026-05-06 23:46 | 53.20218 | -1.95790 | 9082 ft | 282 kts | 310° |
| 2026-05-06 23:46 | 53.21461 | -1.98218 | 8901 ft | 274 kts | 310° |
| 2026-05-06 23:46 | 53.22659 | -2.00638 | 8772 ft | 265 kts | 303° |
| 2026-05-06 23:47 | 53.23456 | -2.03348 | 8560 ft | 259 kts | 287° |
| 2026-05-06 23:47 | 53.23738 | -2.06302 | 8250 ft | 258 kts | 270° |
| 2026-05-06 23:47 | 53.23635 | -2.09276 | 8076 ft | 254 kts | 266° |
| 2026-05-06 23:47 | 53.23524 | -2.12211 | 8011 ft | 255 kts | 266° |
| 2026-05-06 23:48 | 53.23417 | -2.15171 | 7592 ft | 256 kts | 266° |
| 2026-05-06 23:48 | 53.23313 | -2.18103 | 7189 ft | 256 kts | 266° |
| 2026-05-06 23:48 | 53.23206 | -2.21099 | 6786 ft | 255 kts | 266° |
| 2026-05-06 23:48 | 53.23102 | -2.24009 | 6406 ft | 254 kts | 266° |
| 2026-05-06 23:49 | 53.22996 | -2.26948 | 5990 ft | 252 kts | 266° |
| 2026-05-06 23:49 | 53.22889 | -2.29867 | 5518 ft | 251 kts | 266° |
| 2026-05-06 23:49 | 53.22779 | -2.32759 | 5042 ft | 249 kts | 266° |
| 2026-05-06 23:49 | 53.22669 | -2.35650 | 4481 ft | 251 kts | 267° |
| 2026-05-06 23:50 | 53.22556 | -2.38581 | 3993 ft | 252 kts | 266° |
| 2026-05-06 23:50 | 53.22712 | -2.44181 | 3634 ft | 231 kts | 300° |
| 2026-05-06 23:50 | 53.23857 | -2.45880 | 3517 ft | 217 kts | 341° |
| 2026-05-06 23:51 | 53.25292 | -2.46004 | 3274 ft | 209 kts | 19° |
| 2026-05-06 23:51 | 53.26502 | -2.44792 | 3059 ft | 201 kts | 46° |
| 2026-05-06 23:51 | 53.27364 | -2.43070 | 2872 ft | 187 kts | 52° |
| 2026-05-06 23:51 | 53.28176 | -2.41408 | 2451 ft | 180 kts | 52° |
| 2026-05-06 23:52 | 53.28942 | -2.39838 | 2061 ft | 168 kts | 51° |
| 2026-05-06 23:52 | 53.29648 | -2.38389 | 1737 ft | 153 kts | 51° |
| 2026-05-06 23:52 | 53.30310 | -2.37029 | 1303 ft | 148 kts | 51° |